aviador You're here:

LYTV Decoded Metar

TIVAT in SERBIA
Report Time2018-07-20 06:00:00
UTC Time2018-07-20 06:21:07
Flight Rules vfr VFR
WindVRB at 02 kt
Visibility9999 m
Phenomena:N/A
Clouds:N/A
Expected CloudBase > 6,400 ft AGL from Temp-Dew spread
CeilingNone
Temp28°C (ISA +13)
Dew Point12°C (37% RH)
Heat Index27.5°C
AAT27.9°C
QNH1011 hPa
Density Alt1,772 ft
Elevation16 ft
Report Wrong Elevation
Raw Report
LYTV 200600Z VRB02KT CAVOK 28/12 Q1011 NOSIG=

Extra information for LYTV:More info

Metar Taf Metar & Taf Last 4 Metars F.Rules Stats Wind Profile Meteogram Temp Stats Airport Information Weather charts Add Link Nearby VenuesMetar ALERT Operation Metar Decoded Social comments